sensor_id;sensor_type;location;lat;lon;timestamp;pressure;altitude;pressure_sealevel;temperature;humidity
31761;BME280;18335;51.486;7.562;2023-04-27T00:01:05;100610.38;;;4.44;100.00
31761;BME280;18335;51.486;7.562;2023-04-27T00:03:32;100615.38;;;4.26;100.00
31761;BME280;18335;51.486;7.562;2023-04-27T00:05:58;100625.53;;;4.23;100.00
31761;BME280;18335;51.486;7.562;2023-04-27T00:08:26;100613.41;;;4.28;100.00
31761;BME280;18335;51.486;7.562;2023-04-27T00:10:53;100619.50;;;4.19;100.00
31761;BME280;18335;51.486;7.562;2023-04-27T00:13:20;100620.41;;;4.07;100.00
31761;BME280;18335;51.486;7.562;2023-04-27T00:15:47;100620.19;;;3.86;100.00
31761;BME280;18335;51.486;7.562;2023-04-27T00:18:13;100622.88;;;3.86;100.00
31761;BME280;18335;51.486;7.562;2023-04-27T00:20:40;100625.25;;;3.91;100.00
31761;BME280;18335;51.486;7.562;2023-04-27T00:23:07;100625.47;;;3.88;100.00
31761;BME280;18335;51.486;7.562;2023-04-27T00:25:35;100630.13;;;3.86;100.00
31761;BME280;18335;51.486;7.562;2023-04-27T00:28:02;100620.88;;;3.77;100.00
31761;BME280;18335;51.486;7.562;2023-04-27T00:30:29;100622.59;;;3.78;100.00
31761;BME280;18335;51.486;7.562;2023-04-27T00:32:56;100630.94;;;3.63;100.00
31761;BME280;18335;51.486;7.562;2023-04-27T00:35:23;100623.06;;;3.72;100.00
31761;BME280;18335;51.486;7.562;2023-04-27T00:37:49;100625.34;;;3.53;100.00
31761;BME280;18335;51.486;7.562;2023-04-27T00:40:16;100632.50;;;3.42;100.00
31761;BME280;18335;51.486;7.562;2023-04-27T00:42:44;100626.66;;;3.48;100.00
31761;BME280;18335;51.486;7.562;2023-04-27T00:45:11;100629.38;;;3.48;100.00
31761;BME280;18335;51.486;7.562;2023-04-27T00:47:38;100636.16;;;3.41;100.00
31761;BME280;18335;51.486;7.562;2023-04-27T00:50:06;100637.59;;;3.33;100.00
31761;BME280;18335;51.486;7.562;2023-04-27T00:52:35;100641.91;;;3.36;100.00
31761;BME280;18335;51.486;7.562;2023-04-27T00:55:03;100645.47;;;3.37;100.00
31761;BME280;18335;51.486;7.562;2023-04-27T00:57:30;100638.47;;;3.21;100.00
31761;BME280;18335;51.486;7.562;2023-04-27T01:00:00;100637.72;;;3.19;100.00
31761;BME280;18335;51.486;7.562;2023-04-27T01:02:29;100642.03;;;3.22;100.00
31761;BME280;18335;51.486;7.562;2023-04-27T01:04:56;100646.69;;;3.07;100.00
31761;BME280;18335;51.486;7.562;2023-04-27T01:07:24;100648.16;;;2.99;100.00
31761;BME280;18335;51.486;7.562;2023-04-27T01:09:51;100650.88;;;2.86;100.00
31761;BME280;18335;51.486;7.562;2023-04-27T01:12:18;100649.38;;;2.82;100.00
31761;BME280;18335;51.486;7.562;2023-04-27T01:14:46;100646.47;;;2.98;100.00
31761;BME280;18335;51.486;7.562;2023-04-27T01:17:15;100648.28;;;2.97;100.00
31761;BME280;18335;51.486;7.562;2023-04-27T01:19:42;100654.09;;;2.78;100.00
31761;BME280;18335;51.486;7.562;2023-04-27T01:22:09;100656.91;;;2.77;100.00
31761;BME280;18335;51.486;7.562;2023-04-27T01:24:38;100654.22;;;2.77;100.00
31761;BME280;18335;51.486;7.562;2023-04-27T01:27:05;100662.75;;;2.84;100.00
31761;BME280;18335;51.486;7.562;2023-04-27T01:29:32;100664.88;;;2.78;100.00
31761;BME280;18335;51.486;7.562;2023-04-27T01:31:58;100667.53;;;2.66;100.00
31761;BME280;18335;51.486;7.562;2023-04-27T01:34:25;100671.41;;;2.49;100.00
31761;BME280;18335;51.486;7.562;2023-04-27T01:36:52;100667.44;;;2.55;100.00
31761;BME280;18335;51.486;7.562;2023-04-27T01:39:20;100667.88;;;2.61;100.00
31761;BME280;18335;51.486;7.562;2023-04-27T01:41:48;100668.25;;;2.43;100.00
31761;BME280;18335;51.486;7.562;2023-04-27T01:44:15;100673.03;;;2.52;100.00
31761;BME280;18335;51.486;7.562;2023-04-27T01:46:41;100665.44;;;2.32;100.00
31761;BME280;18335;51.486;7.562;2023-04-27T01:49:08;100676.19;;;2.32;100.00
31761;BME280;18335;51.486;7.562;2023-04-27T01:51:35;100677.78;;;2.21;100.00
31761;BME280;18335;51.486;7.562;2023-04-27T01:54:02;100679.56;;;2.35;100.00
31761;BME280;18335;51.486;7.562;2023-04-27T01:56:29;100682.75;;;2.28;100.00
31761;BME280;18335;51.486;7.562;2023-04-27T01:58:57;100675.63;;;2.53;100.00
31761;BME280;18335;51.486;7.562;2023-04-27T02:01:23;100683.78;;;2.52;100.00
31761;BME280;18335;51.486;7.562;2023-04-27T02:03:50;100684.19;;;2.46;100.00
31761;BME280;18335;51.486;7.562;2023-04-27T02:06:17;100681.94;;;2.40;100.00
31761;BME280;18335;51.486;7.562;2023-04-27T02:08:44;100687.72;;;2.34;100.00
31761;BME280;18335;51.486;7.562;2023-04-27T02:11:11;100687.94;;;2.31;100.00
31761;BME280;18335;51.486;7.562;2023-04-27T02:13:38;100692.09;;;2.22;100.00
31761;BME280;18335;51.486;7.562;2023-04-27T02:16:06;100694.84;;;2.35;100.00
31761;BME280;18335;51.486;7.562;2023-04-27T02:18:33;100691.22;;;2.21;100.00
31761;BME280;18335;51.486;7.562;2023-04-27T02:21:00;100690.81;;;2.28;100.00
31761;BME280;18335;51.486;7.562;2023-04-27T02:23:33;100680.22;;;2.39;100.00
31761;BME280;18335;51.486;7.562;2023-04-27T02:26:00;100693.56;;;2.40;100.00
31761;BME280;18335;51.486;7.562;2023-04-27T02:28:27;100690.28;;;2.22;100.00
31761;BME280;18335;51.486;7.562;2023-04-27T02:30:54;100692.03;;;2.09;100.00
31761;BME280;18335;51.486;7.562;2023-04-27T02:33:22;100685.84;;;2.21;100.00
31761;BME280;18335;51.486;7.562;2023-04-27T02:35:49;100684.38;;;2.30;100.00
31761;BME280;18335;51.486;7.562;2023-04-27T02:38:16;100681.34;;;2.22;100.00
31761;BME280;18335;51.486;7.562;2023-04-27T02:40:42;100688.91;;;2.30;100.00
31761;BME280;18335;51.486;7.562;2023-04-27T02:43:09;100683.31;;;2.33;100.00
31761;BME280;18335;51.486;7.562;2023-04-27T02:45:37;100685.63;;;2.12;100.00
31761;BME280;18335;51.486;7.562;2023-04-27T02:48:05;100684.75;;;2.11;100.00
31761;BME280;18335;51.486;7.562;2023-04-27T02:50:39;100685.97;;;2.20;100.00
31761;BME280;18335;51.486;7.562;2023-04-27T02:53:06;100685.63;;;2.12;100.00
31761;BME280;18335;51.486;7.562;2023-04-27T02:55:33;100686.84;;;2.20;100.00
31761;BME280;18335;51.486;7.562;2023-04-27T02:58:00;100682.88;;;2.26;100.00
31761;BME280;18335;51.486;7.562;2023-04-27T03:00:26;100674.13;;;2.22;100.00
31761;BME280;18335;51.486;7.562;2023-04-27T03:02:53;100671.84;;;2.16;100.00
31761;BME280;18335;51.486;7.562;2023-04-27T03:05:20;100672.03;;;2.13;100.00
31761;BME280;18335;51.486;7.562;2023-04-27T03:07:48;100675.50;;;1.75;100.00
31761;BME280;18335;51.486;7.562;2023-04-27T03:10:16;100676.47;;;1.88;100.00
31761;BME280;18335;51.486;7.562;2023-04-27T03:12:42;100678.47;;;1.84;100.00
31761;BME280;18335;51.486;7.562;2023-04-27T03:15:10;100680.69;;;1.78;100.00
31761;BME280;18335;51.486;7.562;2023-04-27T03:17:37;100677.94;;;1.79;100.00
31761;BME280;18335;51.486;7.562;2023-04-27T03:20:06;100675.59;;;1.87;100.00
31761;BME280;18335;51.486;7.562;2023-04-27T03:22:34;100674.66;;;1.74;100.00
31761;BME280;18335;51.486;7.562;2023-04-27T03:25:03;100671.38;;;1.83;100.00
31761;BME280;18335;51.486;7.562;2023-04-27T03:27:30;100669.66;;;1.82;100.00
31761;BME280;18335;51.486;7.562;2023-04-27T03:29:57;100668.16;;;1.64;100.00
31761;BME280;18335;51.486;7.562;2023-04-27T03:32:24;100663.41;;;1.67;100.00
31761;BME280;18335;51.486;7.562;2023-04-27T03:34:51;100662.56;;;1.67;100.00
31761;BME280;18335;51.486;7.562;2023-04-27T03:37:17;100658.44;;;1.61;100.00
31761;BME280;18335;51.486;7.562;2023-04-27T03:39:44;100662.97;;;1.61;100.00
31761;BME280;18335;51.486;7.562;2023-04-27T03:42:13;100672.19;;;1.57;100.00
31761;BME280;18335;51.486;7.562;2023-04-27T03:44:39;100680.88;;;1.34;100.00
31761;BME280;18335;51.486;7.562;2023-04-27T03:47:06;100667.50;;;1.46;100.00
31761;BME280;18335;51.486;7.562;2023-04-27T03:49:35;100671.25;;;1.58;100.00
31761;BME280;18335;51.486;7.562;2023-04-27T03:52:02;100676.72;;;1.42;100.00
31761;BME280;18335;51.486;7.562;2023-04-27T03:54:29;100680.06;;;1.32;100.00
31761;BME280;18335;51.486;7.562;2023-04-27T03:56:56;100686.03;;;1.37;100.00
31761;BME280;18335;51.486;7.562;2023-04-27T03:59:27;100693.91;;;1.40;100.00
31761;BME280;18335;51.486;7.562;2023-04-27T04:01:54;100689.50;;;1.39;100.00
31761;BME280;18335;51.486;7.562;2023-04-27T04:04:22;100690.44;;;1.24;100.00
31761;BME280;18335;51.486;7.562;2023-04-27T04:06:49;100692.47;;;1.34;100.00
31761;BME280;18335;51.486;7.562;2023-04-27T04:09:16;100694.00;;;1.24;100.00
31761;BME280;18335;51.486;7.562;2023-04-27T04:11:43;100695.25;;;1.33;100.00
31761;BME280;18335;51.486;7.562;2023-04-27T04:14:12;100700.81;;;1.30;100.00
31761;BME280;18335;51.486;7.562;2023-04-27T04:16:40;100688.53;;;1.26;100.00
31761;BME280;18335;51.486;7.562;2023-04-27T04:19:08;100697.06;;;1.32;100.00
31761;BME280;18335;51.486;7.562;2023-04-27T04:21:35;100697.66;;;1.37;100.00
31761;BME280;18335;51.486;7.562;2023-04-27T04:24:02;100714.75;;;1.36;100.00
31761;BME280;18335;51.486;7.562;2023-04-27T04:26:29;100712.25;;;1.33;100.00
31761;BME280;18335;51.486;7.562;2023-04-27T04:28:56;100712.72;;;1.26;100.00
31761;BME280;18335;51.486;7.562;2023-04-27T04:31:22;100709.06;;;1.13;100.00
31761;BME280;18335;51.486;7.562;2023-04-27T04:33:50;100714.75;;;1.22;100.00
31761;BME280;18335;51.486;7.562;2023-04-27T04:36:17;100712.13;;;1.35;100.00
31761;BME280;18335;51.486;7.562;2023-04-27T04:38:44;100718.69;;;1.31;100.00
31761;BME280;18335;51.486;7.562;2023-04-27T04:41:11;100728.94;;;1.24;100.00
31761;BME280;18335;51.486;7.562;2023-04-27T04:43:38;100717.72;;;1.32;100.00
31761;BME280;18335;51.486;7.562;2023-04-27T04:46:05;100720.59;;;1.43;100.00
31761;BME280;18335;51.486;7.562;2023-04-27T04:48:32;100713.41;;;1.57;100.00
31761;BME280;18335;51.486;7.562;2023-04-27T04:51:01;100715.03;;;1.46;100.00
31761;BME280;18335;51.486;7.562;2023-04-27T04:53:30;100711.06;;;2.06;100.00
31761;BME280;18335;51.486;7.562;2023-04-27T04:55:56;100703.06;;;2.19;100.00
31761;BME280;18335;51.486;7.562;2023-04-27T04:58:23;100695.81;;;2.34;100.00
31761;BME280;18335;51.486;7.562;2023-04-27T05:00:50;100705.91;;;2.30;100.00
31761;BME280;18335;51.486;7.562;2023-04-27T05:03:17;100711.41;;;2.29;100.00
31761;BME280;18335;51.486;7.562;2023-04-27T05:05:44;100700.31;;;2.06;100.00
31761;BME280;18335;51.486;7.562;2023-04-27T05:08:12;100706.03;;;2.29;100.00
31761;BME280;18335;51.486;7.562;2023-04-27T05:10:38;100703.63;;;2.24;100.00
31761;BME280;18335;51.486;7.562;2023-04-27T05:13:05;100708.31;;;2.35;100.00
31761;BME280;18335;51.486;7.562;2023-04-27T05:15:32;100710.47;;;2.42;100.00
31761;BME280;18335;51.486;7.562;2023-04-27T05:17:58;100713.34;;;2.53;100.00
31761;BME280;18335;51.486;7.562;2023-04-27T05:20:25;100707.13;;;2.65;100.00
31761;BME280;18335;51.486;7.562;2023-04-27T05:22:52;100722.00;;;2.71;100.00
31761;BME280;18335;51.486;7.562;2023-04-27T05:25:20;100717.28;;;2.87;100.00
31761;BME280;18335;51.486;7.562;2023-04-27T05:27:46;100712.31;;;2.81;100.00
31761;BME280;18335;51.486;7.562;2023-04-27T05:30:13;100717.41;;;2.98;100.00
31761;BME280;18335;51.486;7.562;2023-04-27T05:32:40;100720.44;;;3.06;100.00
31761;BME280;18335;51.486;7.562;2023-04-27T05:35:07;100721.41;;;3.05;100.00
31761;BME280;18335;51.486;7.562;2023-04-27T05:37:34;100719.88;;;3.14;100.00
31761;BME280;18335;51.486;7.562;2023-04-27T05:40:00;100728.31;;;3.34;100.00
31761;BME280;18335;51.486;7.562;2023-04-27T05:42:30;100727.66;;;3.56;100.00
31761;BME280;18335;51.486;7.562;2023-04-27T05:44:57;100735.81;;;3.80;100.00
31761;BME280;18335;51.486;7.562;2023-04-27T05:47:23;100742.16;;;3.91;100.00
31761;BME280;18335;51.486;7.562;2023-04-27T05:49:51;100746.13;;;4.11;100.00
31761;BME280;18335;51.486;7.562;2023-04-27T05:52:18;100738.94;;;4.35;100.00
31761;BME280;18335;51.486;7.562;2023-04-27T05:54:48;100751.63;;;4.46;100.00
31761;BME280;18335;51.486;7.562;2023-04-27T05:57:15;100751.63;;;4.70;100.00
31761;BME280;18335;51.486;7.562;2023-04-27T05:59:43;100759.03;;;4.79;100.00
31761;BME280;18335;51.486;7.562;2023-04-27T06:02:10;100755.75;;;4.86;100.00
31761;BME280;18335;51.486;7.562;2023-04-27T06:04:37;100753.16;;;4.85;100.00
31761;BME280;18335;51.486;7.562;2023-04-27T06:07:06;100750.72;;;5.17;100.00
31761;BME280;18335;51.486;7.562;2023-04-27T06:09:33;100754.63;;;5.24;100.00
31761;BME280;18335;51.486;7.562;2023-04-27T06:12:01;100755.28;;;5.27;100.00
31761;BME280;18335;51.486;7.562;2023-04-27T06:14:28;100755.03;;;5.41;100.00
31761;BME280;18335;51.486;7.562;2023-04-27T06:16:57;100756.69;;;5.55;100.00
31761;BME280;18335;51.486;7.562;2023-04-27T06:19:23;100758.38;;;5.56;100.00
31761;BME280;18335;51.486;7.562;2023-04-27T06:21:52;100756.81;;;5.76;100.00
31761;BME280;18335;51.486;7.562;2023-04-27T06:24:19;100756.56;;;5.79;100.00
31761;BME280;18335;51.486;7.562;2023-04-27T06:26:46;100755.09;;;5.75;100.00
31761;BME280;18335;51.486;7.562;2023-04-27T06:29:13;100759.53;;;5.76;100.00
31761;BME280;18335;51.486;7.562;2023-04-27T06:31:39;100758.78;;;5.85;100.00
31761;BME280;18335;51.486;7.562;2023-04-27T06:34:07;100764.72;;;5.90;100.00
31761;BME280;18335;51.486;7.562;2023-04-27T06:36:34;100760.78;;;6.05;100.00
31761;BME280;18335;51.486;7.562;2023-04-27T06:39:01;100759.19;;;6.02;100.00
31761;BME280;18335;51.486;7.562;2023-04-27T06:41:27;100763.63;;;6.15;100.00
31761;BME280;18335;51.486;7.562;2023-04-27T06:43:54;100758.78;;;6.29;100.00
31761;BME280;18335;51.486;7.562;2023-04-27T06:46:21;100758.28;;;6.35;100.00
31761;BME280;18335;51.486;7.562;2023-04-27T06:48:48;100756.78;;;6.42;100.00
31761;BME280;18335;51.486;7.562;2023-04-27T06:51:16;100759.91;;;6.69;100.00
31761;BME280;18335;51.486;7.562;2023-04-27T06:53:42;100752.59;;;6.81;100.00
31761;BME280;18335;51.486;7.562;2023-04-27T06:56:10;100746.72;;;6.97;100.00
31761;BME280;18335;51.486;7.562;2023-04-27T06:58:37;100746.28;;;6.92;100.00
31761;BME280;18335;51.486;7.562;2023-04-27T07:01:04;100738.91;;;6.83;100.00
31761;BME280;18335;51.486;7.562;2023-04-27T07:03:33;100741.38;;;6.86;100.00
31761;BME280;18335;51.486;7.562;2023-04-27T07:06:00;100733.38;;;7.05;100.00
31761;BME280;18335;51.486;7.562;2023-04-27T07:08:28;100734.50;;;7.02;100.00
31761;BME280;18335;51.486;7.562;2023-04-27T07:10:54;100728.50;;;6.99;100.00
31761;BME280;18335;51.486;7.562;2023-04-27T07:13:21;100731.25;;;6.88;100.00
31761;BME280;18335;51.486;7.562;2023-04-27T07:15:53;100728.34;;;7.00;100.00
31761;BME280;18335;51.486;7.562;2023-04-27T07:18:21;100730.81;;;7.24;100.00
31761;BME280;18335;51.486;7.562;2023-04-27T07:20:48;100730.16;;;7.32;100.00
31761;BME280;18335;51.486;7.562;2023-04-27T07:23:15;100736.16;;;7.35;100.00
31761;BME280;18335;51.486;7.562;2023-04-27T07:25:43;100734.28;;;7.56;100.00
31761;BME280;18335;51.486;7.562;2023-04-27T07:28:11;100735.31;;;7.55;100.00
31761;BME280;18335;51.486;7.562;2023-04-27T07:30:37;100728.91;;;7.66;100.00
31761;BME280;18335;51.486;7.562;2023-04-27T07:33:05;100721.09;;;7.72;100.00
31761;BME280;18335;51.486;7.562;2023-04-27T07:35:31;100728.25;;;7.73;100.00
31761;BME280;18335;51.486;7.562;2023-04-27T07:37:58;100728.16;;;7.85;100.00
31761;BME280;18335;51.486;7.562;2023-04-27T07:40:27;100733.84;;;7.82;100.00
31761;BME280;18335;51.486;7.562;2023-04-27T07:42:55;100731.16;;;7.82;100.00
31761;BME280;18335;51.486;7.562;2023-04-27T07:45:23;100733.53;;;7.75;100.00
31761;BME280;18335;51.486;7.562;2023-04-27T07:47:56;100728.28;;;7.83;100.00
31761;BME280;18335;51.486;7.562;2023-04-27T07:50:25;100723.06;;;8.01;100.00
31761;BME280;18335;51.486;7.562;2023-04-27T07:52:52;100733.31;;;7.88;100.00
31761;BME280;18335;51.486;7.562;2023-04-27T07:55:19;100728.84;;;8.17;100.00
31761;BME280;18335;51.486;7.562;2023-04-27T07:57:47;100720.03;;;8.34;100.00
31761;BME280;18335;51.486;7.562;2023-04-27T08:00:16;100724.06;;;8.40;100.00
31761;BME280;18335;51.486;7.562;2023-04-27T08:02:43;100727.09;;;8.56;100.00
31761;BME280;18335;51.486;7.562;2023-04-27T08:05:10;100738.28;;;8.22;100.00
31761;BME280;18335;51.486;7.562;2023-04-27T08:07:36;100734.66;;;8.33;100.00
31761;BME280;18335;51.486;7.562;2023-04-27T08:10:04;100725.19;;;8.37;100.00
31761;BME280;18335;51.486;7.562;2023-04-27T08:12:31;100728.69;;;8.68;100.00
31761;BME280;18335;51.486;7.562;2023-04-27T08:14:58;100729.53;;;8.59;100.00
31761;BME280;18335;51.486;7.562;2023-04-27T08:17:26;100726.09;;;8.47;100.00
31761;BME280;18335;51.486;7.562;2023-04-27T08:19:53;100729.09;;;8.44;100.00
31761;BME280;18335;51.486;7.562;2023-04-27T08:22:19;100732.41;;;8.67;100.00
31761;BME280;18335;51.486;7.562;2023-04-27T08:24:46;100727.56;;;8.80;100.00
31761;BME280;18335;51.486;7.562;2023-04-27T08:27:13;100723.41;;;8.85;100.00
31761;BME280;18335;51.486;7.562;2023-04-27T08:29:44;100724.13;;;8.68;100.00
31761;BME280;18335;51.486;7.562;2023-04-27T08:32:11;100724.97;;;8.98;100.00
31761;BME280;18335;51.486;7.562;2023-04-27T08:34:39;100732.28;;;8.87;100.00
31761;BME280;18335;51.486;7.562;2023-04-27T08:37:07;100731.00;;;8.82;100.00
31761;BME280;18335;51.486;7.562;2023-04-27T08:39:33;100726.13;;;8.85;100.00
31761;BME280;18335;51.486;7.562;2023-04-27T08:42:01;100715.22;;;9.24;100.00
31761;BME280;18335;51.486;7.562;2023-04-27T08:44:37;100717.69;;;9.08;100.00
31761;BME280;18335;51.486;7.562;2023-04-27T08:47:04;100714.63;;;9.20;100.00
31761;BME280;18335;51.486;7.562;2023-04-27T08:49:31;100705.16;;;9.43;100.00
31761;BME280;18335;51.486;7.562;2023-04-27T08:52:00;100702.81;;;9.58;100.00
31761;BME280;18335;51.486;7.562;2023-04-27T08:54:27;100706.91;;;9.25;100.00
31761;BME280;18335;51.486;7.562;2023-04-27T08:56:53;100697.41;;;9.49;100.00
31761;BME280;18335;51.486;7.562;2023-04-27T08:59:20;100704.00;;;9.46;100.00
31761;BME280;18335;51.486;7.562;2023-04-27T09:01:48;100703.97;;;9.56;100.00
31761;BME280;18335;51.486;7.562;2023-04-27T09:04:15;100703.03;;;9.74;100.00
31761;BME280;18335;51.486;7.562;2023-04-27T09:06:43;100703.88;;;9.84;100.00
31761;BME280;18335;51.486;7.562;2023-04-27T09:09:20;100713.53;;;10.06;100.00
31761;BME280;18335;51.486;7.562;2023-04-27T09:11:47;100707.47;;;10.12;100.00
31761;BME280;18335;51.486;7.562;2023-04-27T09:14:17;100704.16;;;9.81;100.00
31761;BME280;18335;51.486;7.562;2023-04-27T09:16:44;100709.03;;;10.24;100.00
31761;BME280;18335;51.486;7.562;2023-04-27T09:19:10;100695.19;;;10.53;100.00
31761;BME280;18335;51.486;7.562;2023-04-27T09:21:37;100698.75;;;10.09;99.53
31761;BME280;18335;51.486;7.562;2023-04-27T09:24:12;100708.53;;;10.01;96.20
31761;BME280;18335;51.486;7.562;2023-04-27T09:26:39;100699.53;;;10.46;96.74
31761;BME280;18335;51.486;7.562;2023-04-27T09:29:07;100694.03;;;10.55;100.00
31761;BME280;18335;51.486;7.562;2023-04-27T09:31:34;100695.50;;;10.50;96.62
31761;BME280;18335;51.486;7.562;2023-04-27T09:34:01;100681.06;;;10.57;100.00
31761;BME280;18335;51.486;7.562;2023-04-27T09:36:29;100680.25;;;10.57;92.61
31761;BME280;18335;51.486;7.562;2023-04-27T09:38:57;100668.72;;;10.63;95.94
31761;BME280;18335;51.486;7.562;2023-04-27T09:41:30;100668.09;;;10.69;98.89
31761;BME280;18335;51.486;7.562;2023-04-27T09:43:57;100663.84;;;10.92;100.00
31761;BME280;18335;51.486;7.562;2023-04-27T09:46:26;100667.53;;;10.83;95.57
31761;BME280;18335;51.486;7.562;2023-04-27T09:48:55;100663.00;;;10.92;93.40
31761;BME280;18335;51.486;7.562;2023-04-27T09:51:21;100656.28;;;11.30;87.19
31761;BME280;18335;51.486;7.562;2023-04-27T09:53:51;100652.94;;;10.92;91.01
31761;BME280;18335;51.486;7.562;2023-04-27T09:56:29;100653.66;;;11.20;92.94
31761;BME280;18335;51.486;7.562;2023-04-27T09:59:11;100653.50;;;11.22;93.75
31761;BME280;18335;51.486;7.562;2023-04-27T10:01:45;100644.72;;;11.36;92.00
31761;BME280;18335;51.486;7.562;2023-04-27T10:04:24;100656.94;;;11.75;83.19
31761;BME280;18335;51.486;7.562;2023-04-27T10:06:59;100655.53;;;11.71;91.61
31761;BME280;18335;51.486;7.562;2023-04-27T10:09:32;100650.94;;;11.72;92.64
31761;BME280;18335;51.486;7.562;2023-04-27T10:12:13;100652.56;;;11.82;81.93
31761;BME280;18335;51.486;7.562;2023-04-27T10:14:49;100643.59;;;11.46;77.24
31761;BME280;18335;51.486;7.562;2023-04-27T10:17:16;100645.69;;;11.78;98.08
31761;BME280;18335;51.486;7.562;2023-04-27T10:19:52;100655.44;;;11.55;90.99
31761;BME280;18335;51.486;7.562;2023-04-27T10:22:20;100641.00;;;12.04;100.00
31761;BME280;18335;51.486;7.562;2023-04-27T10:24:48;100653.09;;;11.68;74.06
31761;BME280;18335;51.486;7.562;2023-04-27T10:27:17;100642.50;;;11.65;75.80
31761;BME280;18335;51.486;7.562;2023-04-27T10:29:49;100630.81;;;12.23;75.27
31761;BME280;18335;51.486;7.562;2023-04-27T10:32:20;100628.06;;;12.23;79.40
31761;BME280;18335;51.486;7.562;2023-04-27T10:34:48;100630.13;;;12.20;72.34
31761;BME280;18335;51.486;7.562;2023-04-27T10:37:16;100630.47;;;12.34;73.45
31761;BME280;18335;51.486;7.562;2023-04-27T10:39:45;100618.56;;;12.51;72.47
31761;BME280;18335;51.486;7.562;2023-04-27T10:42:11;100618.03;;;12.39;64.30
31761;BME280;18335;51.486;7.562;2023-04-27T10:44:38;100608.31;;;12.53;65.81
31761;BME280;18335;51.486;7.562;2023-04-27T10:47:14;100606.09;;;12.64;67.96
31761;BME280;18335;51.486;7.562;2023-04-27T10:49:41;100611.78;;;12.13;62.66
31761;BME280;18335;51.486;7.562;2023-04-27T10:52:08;100606.91;;;12.33;64.07
31761;BME280;18335;51.486;7.562;2023-04-27T10:54:35;100603.84;;;12.52;70.44
31761;BME280;18335;51.486;7.562;2023-04-27T10:57:05;100600.44;;;12.50;69.38
31761;BME280;18335;51.486;7.562;2023-04-27T10:59:33;100596.66;;;12.59;62.82
31761;BME280;18335;51.486;7.562;2023-04-27T11:02:00;100585.06;;;12.81;67.84
31761;BME280;18335;51.486;7.562;2023-04-27T11:04:36;100596.50;;;12.85;72.84
31761;BME280;18335;51.486;7.562;2023-04-27T11:07:04;100581.63;;;12.71;59.25
31761;BME280;18335;51.486;7.562;2023-04-27T11:09:33;100582.31;;;12.89;76.30
31761;BME280;18335;51.486;7.562;2023-04-27T11:12:01;100584.16;;;13.21;63.27
31761;BME280;18335;51.486;7.562;2023-04-27T11:14:28;100578.78;;;13.52;57.38
31761;BME280;18335;51.486;7.562;2023-04-27T11:16:55;100579.75;;;13.20;60.36
31761;BME280;18335;51.486;7.562;2023-04-27T11:19:21;100582.47;;;12.96;60.48
31761;BME280;18335;51.486;7.562;2023-04-27T11:21:49;100576.81;;;12.89;53.55
31761;BME280;18335;51.486;7.562;2023-04-27T11:24:16;100577.84;;;13.12;63.43
31761;BME280;18335;51.486;7.562;2023-04-27T11:26:50;100577.34;;;13.09;50.33
31761;BME280;18335;51.486;7.562;2023-04-27T11:29:17;100585.56;;;12.68;58.01
31761;BME280;18335;51.486;7.562;2023-04-27T11:31:46;100577.00;;;12.96;54.46
31761;BME280;18335;51.486;7.562;2023-04-27T11:34:15;100572.53;;;13.03;49.72
31761;BME280;18335;51.486;7.562;2023-04-27T11:36:42;100572.56;;;13.66;66.36
31761;BME280;18335;51.486;7.562;2023-04-27T11:39:16;100574.56;;;13.25;56.27
31761;BME280;18335;51.486;7.562;2023-04-27T11:41:44;100574.75;;;13.23;55.85
31761;BME280;18335;51.486;7.562;2023-04-27T11:44:11;100578.81;;;13.44;53.93
31761;BME280;18335;51.486;7.562;2023-04-27T11:46:38;100571.53;;;13.67;52.99
31761;BME280;18335;51.486;7.562;2023-04-27T11:49:07;100573.41;;;14.05;63.27
31761;BME280;18335;51.486;7.562;2023-04-27T11:51:34;100570.94;;;13.32;54.31
31761;BME280;18335;51.486;7.562;2023-04-27T11:54:02;100574.75;;;13.23;57.16
31761;BME280;18335;51.486;7.562;2023-04-27T11:56:38;100575.28;;;12.95;56.71
31761;BME280;18335;51.486;7.562;2023-04-27T11:59:05;100574.06;;;13.21;53.65
31761;BME280;18335;51.486;7.562;2023-04-27T12:01:32;100558.97;;;13.34;50.27
31761;BME280;18335;51.486;7.562;2023-04-27T12:04:00;100569.19;;;13.48;47.36
31761;BME280;18335;51.486;7.562;2023-04-27T12:06:27;100562.13;;;14.00;45.94
31761;BME280;18335;51.486;7.562;2023-04-27T12:08:55;100558.31;;;14.01;46.20
31761;BME280;18335;51.486;7.562;2023-04-27T12:11:23;100558.31;;;14.01;51.84
31761;BME280;18335;51.486;7.562;2023-04-27T12:13:52;100564.75;;;13.39;58.22
31761;BME280;18335;51.486;7.562;2023-04-27T12:16:19;100549.06;;;13.71;55.09
31761;BME280;18335;51.486;7.562;2023-04-27T12:18:47;100550.81;;;13.95;53.67
31761;BME280;18335;51.486;7.562;2023-04-27T12:21:14;100554.47;;;14.18;62.70
31761;BME280;18335;51.486;7.562;2023-04-27T12:23:42;100547.44;;;14.16;49.40
31761;BME280;18335;51.486;7.562;2023-04-27T12:26:09;100532.63;;;14.33;58.32
31761;BME280;18335;51.486;7.562;2023-04-27T12:28:36;100537.16;;;13.87;53.36
31761;BME280;18335;51.486;7.562;2023-04-27T12:31:04;100538.53;;;13.83;49.03
31761;BME280;18335;51.486;7.562;2023-04-27T12:33:32;100538.72;;;14.12;56.67
31761;BME280;18335;51.486;7.562;2023-04-27T12:35:59;100530.72;;;14.56;45.40
31761;BME280;18335;51.486;7.562;2023-04-27T12:38:26;100529.25;;;14.46;44.54
31761;BME280;18335;51.486;7.562;2023-04-27T12:40:53;100524.66;;;14.61;59.68
31761;BME280;18335;51.486;7.562;2023-04-27T12:43:20;100529.00;;;14.55;48.14
31761;BME280;18335;51.486;7.562;2023-04-27T12:45:47;100523.34;;;15.23;44.52
31761;BME280;18335;51.486;7.562;2023-04-27T12:48:15;100532.34;;;14.43;62.56
31761;BME280;18335;51.486;7.562;2023-04-27T12:50:42;100528.19;;;15.07;49.07
31761;BME280;18335;51.486;7.562;2023-04-27T12:53:09;100531.94;;;15.58;53.97